Time;durP1;ratioP1;P1;durP2;ratioP2;P2;SDS_P1;SDS_P2;PMS_P1;PMS_P2;Temp;Humidity;BMP_temperature;BMP_pressure;BME280_temperature;BME280_humidity;BME280_pressure;Samples;Min_cycle;Max_cycle;Signal;HPM_P1;HPM_P2
2023/06/28 00:01:04;;;;;;;0.70;0.65;;;;;;;17.04;100.00;99948.69;6100226;23;20009;-90
2023/06/28 00:03:29;;;;;;;0.93;0.77;;;;;;;17.02;100.00;99940.00;6100289;23;20033;-90
2023/06/28 00:05:55;;;;;;;1.23;1.13;;;;;;;16.92;100.00;99935.75;6121477;23;20477;-91
2023/06/28 00:08:21;;;;;;;0.85;0.85;;;;;;;16.88;100.00;99935.16;6088840;23;20100;-90
2023/06/28 00:10:46;;;;;;;0.85;0.85;;;;;;;16.90;100.00;99929.88;6124865;23;20358;-91
2023/06/28 00:13:12;;;;;;;1.45;1.35;;;;;;;16.89;100.00;99928.31;6104808;23;20091;-91
2023/06/28 00:15:37;;;;;;;0.93;0.65;;;;;;;16.97;100.00;99943.47;6105587;23;20071;-90
2023/06/28 00:18:03;;;;;;;0.50;0.50;;;;;;;16.94;100.00;99938.84;6104873;23;20442;-90
2023/06/28 00:20:29;;;;;;;1.95;1.15;;;;;;;16.90;100.00;99932.66;6129070;23;20461;-92
2023/06/28 00:22:55;;;;;;;0.90;0.90;;;;;;;16.83;100.00;99927.44;6129242;23;20095;-91
2023/06/28 00:25:20;;;;;;;0.73;0.73;;;;;;;16.82;100.00;99926.69;6105661;23;20021;-91
2023/06/28 00:27:46;;;;;;;1.15;0.77;;;;;;;16.83;100.00;99928.19;6104761;23;20001;-90
2023/06/28 00:30:12;;;;;;;1.25;1.13;;;;;;;16.81;100.00;99935.56;6130080;23;20013;-90
2023/06/28 00:32:38;;;;;;;0.73;0.73;;;;;;;16.83;100.00;99933.03;6105056;23;20108;-90
2023/06/28 00:35:05;;;;;;;0.98;0.93;;;;;;;16.87;100.00;99928.00;6129642;23;20092;-90
2023/06/28 00:37:31;;;;;;;1.45;1.25;;;;;;;16.82;100.00;99929.47;6128869;23;20027;-91
2023/06/28 00:39:57;;;;;;;3.22;1.08;;;;;;;16.85;100.00;99924.94;6105359;23;20056;-92
2023/06/28 00:42:23;;;;;;;1.05;0.57;;;;;;;16.78;100.00;99915.63;6128946;23;20028;-91
2023/06/28 00:44:48;;;;;;;1.02;0.95;;;;;;;16.83;100.00;99919.03;6129289;23;20028;-91
2023/06/28 00:47:14;;;;;;;1.30;0.85;;;;;;;16.83;100.00;99921.81;6153993;23;20100;-92
2023/06/28 00:49:42;;;;;;;0.47;0.45;;;;;;;16.77;100.00;99916.13;6105916;23;20013;-91
2023/06/28 00:52:09;;;;;;;0.47;0.47;;;;;;;16.81;100.00;99918.75;6128528;23;20631;-91
2023/06/28 00:54:35;;;;;;;0.35;0.35;;;;;;;16.74;100.00;99925.50;6129475;23;20017;-91
2023/06/28 00:57:01;;;;;;;1.35;1.13;;;;;;;16.77;100.00;99925.31;6104225;23;20075;-90
2023/06/28 00:59:27;;;;;;;0.70;0.70;;;;;;;16.77;100.00;99918.94;6129688;23;20409;-91
2023/06/28 01:01:52;;;;;;;1.02;0.98;;;;;;;16.71;100.00;99918.06;6104031;23;20021;-91
2023/06/28 01:06:59;;;;;;;0.57;0.47;;;;;;;16.76;100.00;99923.00;6167876;23;20080;-91
2023/06/28 01:09:26;;;;;;;0.63;0.63;;;;;;;16.73;100.00;99927.53;6077628;23;20018;-90
2023/06/28 01:11:53;;;;;;;0.80;0.80;;;;;;;16.70;100.00;99925.69;6101035;23;20087;-91
2023/06/28 01:14:19;;;;;;;1.02;0.95;;;;;;;16.73;100.00;99935.94;6101844;23;20025;-92
2023/06/28 01:16:54;;;;;;;0.70;0.70;;;;;;;16.74;100.00;99919.91;6077223;23;20028;-90
2023/06/28 01:19:22;;;;;;;1.17;1.00;;;;;;;16.73;100.00;99924.75;6103092;23;20013;-91
2023/06/28 01:21:53;;;;;;;1.25;1.15;;;;;;;16.73;100.00;99930.34;6100654;23;20014;-91
2023/06/28 01:24:21;;;;;;;0.70;0.65;;;;;;;16.73;100.00;99935.94;6102120;23;20404;-91
2023/06/28 01:26:52;;;;;;;0.45;0.30;;;;;;;16.74;100.00;99937.47;6126134;23;20445;-89
2023/06/28 01:29:24;;;;;;;2.20;1.48;;;;;;;16.78;100.00;99931.69;6102873;23;20014;-91
2023/06/28 01:31:59;;;;;;;0.47;0.40;;;;;;;16.76;100.00;99923.75;6101530;23;20009;-90
2023/06/28 01:34:26;;;;;;;1.85;1.38;;;;;;;16.69;100.00;99918.56;6102146;23;20013;-91
2023/06/28 01:36:53;;;;;;;1.52;1.17;;;;;;;16.61;100.00;99911.78;6077494;23;20005;-91
2023/06/28 01:39:20;;;;;;;1.35;0.55;;;;;;;16.66;100.00;99924.34;6126920;23;20049;-91
2023/06/28 01:41:46;;;;;;;1.05;0.95;;;;;;;16.61;100.00;99908.22;6101005;23;20092;-91
2023/06/28 01:44:12;;;;;;;4.22;1.25;;;;;;;16.65;100.00;99917.97;6102169;23;20442;-90
2023/06/28 01:46:37;;;;;;;0.38;0.38;;;;;;;16.62;100.00;99904.91;6101861;23;20073;-91
2023/06/28 01:49:03;;;;;;;1.02;0.95;;;;;;;16.60;100.00;99915.84;6101517;23;20501;-90
2023/06/28 01:51:29;;;;;;;1.00;0.82;;;;;;;16.62;100.00;99901.38;6077455;23;20016;-91
2023/06/28 01:53:55;;;;;;;0.90;0.65;;;;;;;16.61;100.00;99905.41;6077318;23;20338;-91
2023/06/28 01:56:20;;;;;;;1.45;1.35;;;;;;;16.61;100.00;99903.38;6126470;23;20048;-92
2023/06/28 01:58:46;;;;;;;0.55;0.43;;;;;;;16.65;100.00;99901.16;6077213;23;20092;-89
2023/06/28 02:01:12;;;;;;;1.13;0.93;;;;;;;16.64;100.00;99896.81;6125956;23;20019;-91
2023/06/28 02:03:38;;;;;;;1.25;1.15;;;;;;;16.62;100.00;99895.75;6077687;23;20063;-90
2023/06/28 02:06:04;;;;;;;5.15;1.95;;;;;;;16.59;100.00;99891.88;6076688;23;20066;-90
2023/06/28 02:08:30;;;;;;;0.60;0.57;;;;;;;16.63;100.00;99894.47;6101858;23;20013;-89
2023/06/28 02:10:55;;;;;;;1.00;0.90;;;;;;;16.64;100.00;99896.81;6101677;23;20080;-90
2023/06/28 02:13:21;;;;;;;0.85;0.63;;;;;;;16.63;100.00;99889.66;6101164;23;20462;-91
2023/06/28 02:15:47;;;;;;;1.60;1.05;;;;;;;16.62;100.00;99895.75;6077903;23;20338;-90
2023/06/28 02:18:16;;;;;;;1.58;1.30;;;;;;;16.65;100.00;99900.38;6102076;23;20010;-91
2023/06/28 02:20:43;;;;;;;9.13;1.30;;;;;;;16.63;100.00;99889.66;6076516;23;20088;-91
2023/06/28 02:23:09;;;;;;;5.43;1.20;;;;;;;16.61;100.00;99885.81;6101452;23;20105;-90
2023/06/28 02:25:35;;;;;;;4.45;1.67;;;;;;;16.60;100.00;99890.63;6077740;23;20021;-90
2023/06/28 02:28:01;;;;;;;2.28;1.30;;;;;;;16.58;100.00;99898.72;6100771;23;20068;-90
2023/06/28 02:30:26;;;;;;;7.10;1.38;;;;;;;16.52;100.00;99908.25;6101137;23;20071;-90
2023/06/28 02:32:52;;;;;;;3.85;1.00;;;;;;;16.47;100.00;99906.91;6101090;23;20028;-90
2023/06/28 02:35:17;;;;;;;29.20;1.48;;;;;;;16.45;100.00;99915.03;6100578;23;20073;-90
2023/06/28 02:37:43;;;;;;;1.45;0.85;;;;;;;16.47;100.00;99925.72;6100633;23;20016;-90
2023/06/28 02:40:14;;;;;;;1.13;1.02;;;;;;;16.43;100.00;99927.94;6125911;23;20323;-89
2023/06/28 02:42:40;;;;;;;0.38;0.38;;;;;;;16.42;100.00;99943.94;6101457;23;20017;-91
2023/06/28 02:45:06;;;;;;;1.27;1.00;;;;;;;16.40;100.00;99945.69;6101106;23;20065;-91
2023/06/28 02:47:32;;;;;;;0.30;0.30;;;;;;;16.40;100.00;99943.66;6125207;23;20056;-91
2023/06/28 02:49:58;;;;;;;1.08;1.00;;;;;;;16.43;100.00;99941.94;6100976;23;20024;-88
2023/06/28 02:52:24;;;;;;;0.52;0.52;;;;;;;16.45;100.00;99943.00;6100241;23;20045;-89
2023/06/28 02:54:50;;;;;;;1.40;0.73;;;;;;;16.45;100.00;99937.41;6100940;23;20462;-89
2023/06/28 02:57:16;;;;;;;0.82;0.80;;;;;;;16.44;100.00;99941.47;6099297;23;20052;-89
2023/06/28 02:59:48;;;;;;;1.38;1.25;;;;;;;16.40;100.00;99915.69;6102745;23;20013;-88
2023/06/28 03:02:17;;;;;;;0.40;0.40;;;;;;;16.46;100.00;99933.34;6076146;23;20022;-90
2023/06/28 03:04:43;;;;;;;1.35;1.20;;;;;;;16.44;100.00;99935.88;6076559;23;20068;-88
2023/06/28 03:07:15;;;;;;;1.15;1.05;;;;;;;16.36;100.00;99923.50;6113554;23;20480;-89
2023/06/28 03:09:41;;;;;;;1.42;1.05;;;;;;;16.38;100.00;99920.22;6154912;23;20013;-88
2023/06/28 03:12:07;;;;;;;0.80;0.60;;;;;;;16.43;100.00;99911.13;6154075;23;20017;-90
2023/06/28 03:14:34;;;;;;;2.47;1.23;;;;;;;16.41;100.00;99920.03;6130297;23;20456;-90
2023/06/28 03:16:59;;;;;;;1.83;1.40;;;;;;;16.43;100.00;99917.50;6129724;23;19996;-88
2023/06/28 03:19:25;;;;;;;0.85;0.63;;;;;;;16.44;100.00;99910.66;6130574;23;20327;-90
2023/06/28 03:21:50;;;;;;;0.40;0.40;;;;;;;16.44;100.00;99907.88;6128898;23;20143;-91
2023/06/28 03:24:16;;;;;;;1.80;0.88;;;;;;;16.44;100.00;99907.88;6155011;23;20056;-89
2023/06/28 03:26:41;;;;;;;0.65;0.57;;;;;;;16.46;100.00;99913.75;6129560;23;20020;-89
2023/06/28 03:29:07;;;;;;;1.40;1.30;;;;;;;16.45;100.00;99912.22;6130059;23;20013;-89
2023/06/28 03:31:33;;;;;;;0.55;0.45;;;;;;;16.46;100.00;99913.00;6105287;23;20095;-90
2023/06/28 03:34:00;;;;;;;15.63;0.93;;;;;;;16.45;100.00;99917.81;6130182;23;20025;-90
2023/06/28 03:36:27;;;;;;;0.80;0.80;;;;;;;16.34;100.00;99926.75;6153557;23;20495;-90
2023/06/28 03:38:53;;;;;;;0.00;0.00;;;;;;;16.36;100.00;99939.50;6105690;23;20080;-89
2023/06/28 03:41:19;;;;;;;0.25;0.25;;;;;;;16.31;100.00;99933.31;6105775;23;20100;-88
2023/06/28 03:43:45;;;;;;;0.82;0.82;;;;;;;16.22;100.00;99925.00;6153771;23;20021;-89
2023/06/28 03:46:11;;;;;;;1.73;1.60;;;;;;;16.25;100.00;99928.88;6129872;23;20045;-89
2023/06/28 03:48:36;;;;;;;0.65;0.65;;;;;;;16.27;100.00;99929.16;6129957;23;20009;-91
2023/06/28 03:51:02;;;;;;;0.57;0.57;;;;;;;16.23;100.00;99931.38;6104711;23;20021;-89
2023/06/28 03:53:28;;;;;;;0.93;0.75;;;;;;;16.14;100.00;99945.41;6105403;23;20401;-88
2023/06/28 03:55:54;;;;;;;0.93;0.93;;;;;;;16.15;100.00;99950.53;6129914;23;20165;-88
2023/06/28 03:58:19;;;;;;;1.63;1.50;;;;;;;16.17;100.00;99947.28;6129301;23;20017;-88
2023/06/28 04:00:45;;;;;;;1.38;1.20;;;;;;;16.17;100.00;99950.06;6129530;23;20095;-88
2023/06/28 04:03:10;;;;;;;0.88;0.88;;;;;;;16.22;100.00;99963.38;6154277;23;20109;-88
2023/06/28 04:05:36;;;;;;;7.07;1.35;;;;;;;16.17;100.00;99947.28;6129152;23;20016;-90
2023/06/28 04:08:02;;;;;;;0.57;0.57;;;;;;;16.19;100.00;99953.16;6153700;23;20020;-89
2023/06/28 04:10:27;;;;;;;0.32;0.32;;;;;;;16.13;100.00;99938.28;6105708;23;20084;-89
2023/06/28 04:12:53;;;;;;;1.23;1.15;;;;;;;16.12;100.00;99947.94;6104624;23;20020;-89
2023/06/28 04:15:19;;;;;;;0.88;0.45;;;;;;;16.12;100.00;99953.53;6154357;23;20354;-90
2023/06/28 04:17:45;;;;;;;1.95;1.63;;;;;;;16.08;100.00;99944.53;6129520;23;20013;-90
2023/06/28 04:20:10;;;;;;;0.57;0.55;;;;;;;16.07;100.00;99963.34;6129712;23;20051;-90
2023/06/28 04:22:36;;;;;;;1.15;1.05;;;;;;;16.04;100.00;99960.72;6105030;23;20096;-90
2023/06/28 04:25:02;;;;;;;2.63;0.45;;;;;;;16.10;100.00;99967.22;6129486;23;20024;-90
2023/06/28 04:27:28;;;;;;;0.75;0.60;;;;;;;16.10;100.00;99973.59;6129252;23;20021;-90
2023/06/28 04:29:53;;;;;;;2.25;1.10;;;;;;;16.11;100.00;99968.75;6105460;23;20009;-90
2023/06/28 04:32:29;;;;;;;0.77;0.77;;;;;;;16.15;100.00;99983.34;6105137;23;20442;-90
2023/06/28 04:34:56;;;;;;;0.47;0.47;;;;;;;16.15;100.00;99986.16;6105529;23;20045;-91
2023/06/28 04:37:27;;;;;;;1.35;1.25;;;;;;;16.16;100.00;99976.50;6104262;23;20020;-90
2023/06/28 04:39:59;;;;;;;1.58;0.98;;;;;;;16.10;100.00;99979.19;6130930;23;20045;-90
2023/06/28 04:42:25;;;;;;;1.53;1.43;;;;;;;16.18;100.00;99985.19;6128904;23;20103;-90
2023/06/28 04:44:50;;;;;;;0.35;0.35;;;;;;;16.18;100.00;99987.97;6131108;23;20013;-89
2023/06/28 04:47:17;;;;;;;1.85;1.08;;;;;;;16.17;100.00;99990.03;6155884;23;20088;-90
2023/06/28 04:49:49;;;;;;;0.52;0.50;;;;;;;16.25;100.00;100008.00;6131671;23;20005;-90
2023/06/28 04:52:15;;;;;;;1.10;0.85;;;;;;;16.17;100.00;99997.66;6130615;23;20028;-89
2023/06/28 04:54:41;;;;;;;0.75;0.75;;;;;;;16.17;100.00;99989.25;6131271;23;20397;-90
2023/06/28 04:57:07;;;;;;;2.15;0.65;;;;;;;16.19;100.00;100003.53;6131172;23;20013;-89
2023/06/28 04:59:33;;;;;;;1.58;1.08;;;;;;;16.20;100.00;99996.69;6132081;23;20357;-91
2023/06/28 05:01:58;;;;;;;1.98;1.30;;;;;;;16.16;100.00;99998.91;6155511;23;20021;-89
2023/06/28 05:04:24;;;;;;;1.20;1.13;;;;;;;16.14;100.00;100001.38;6131521;23;20017;-89
2023/06/28 05:06:51;;;;;;;0.77;0.77;;;;;;;16.19;100.00;99995.13;6144299;23;20289;-89
2023/06/28 05:09:17;;;;;;;1.55;1.45;;;;;;;16.21;100.00;99996.22;6076703;23;20018;-90
2023/06/28 05:11:43;;;;;;;0.63;0.60;;;;;;;16.24;100.00;100005.69;6099636;23;20109;-90
2023/06/28 05:14:09;;;;;;;1.08;1.02;;;;;;;16.20;100.00;99999.50;6124931;23;20017;-89
2023/06/28 05:16:34;;;;;;;0.70;0.70;;;;;;;16.24;100.00;100008.47;6149299;23;20024;-90
2023/06/28 05:18:59;;;;;;;0.45;0.45;;;;;;;16.21;100.00;100009.44;6124491;23;20414;-90
2023/06/28 05:21:25;;;;;;;1.25;1.05;;;;;;;16.31;100.00;100022.09;6124071;23;20037;-90
2023/06/28 05:23:51;;;;;;;1.10;0.50;;;;;;;16.31;100.00;100027.72;6099705;23;20013;-90
2023/06/28 05:26:16;;;;;;;2.00;1.20;;;;;;;16.28;100.00;100029.44;6076255;23;20025;-90
2023/06/28 05:28:42;;;;;;;1.63;1.30;;;;;;;16.26;100.00;100036.75;6075465;23;20390;-90
2023/06/28 05:31:07;;;;;;;0.47;0.43;;;;;;;16.25;100.00;100052.78;6124640;23;20095;-90
2023/06/28 05:33:33;;;;;;;0.55;0.50;;;;;;;16.20;100.00;100042.25;6099999;23;20096;-91
2023/06/28 05:35:58;;;;;;;0.47;0.47;;;;;;;16.21;100.00;100051.41;6075096;23;20449;-91
2023/06/28 05:38:24;;;;;;;1.38;1.27;;;;;;;16.12;100.00;100057.84;6100406;23;20013;-90
2023/06/28 05:40:53;;;;;;;1.35;1.00;;;;;;;16.14;100.00;100046.94;6100037;23;20248;-90
2023/06/28 05:43:21;;;;;;;0.80;0.40;;;;;;;16.14;100.00;100069.31;6099768;23;20024;-90
2023/06/28 05:45:46;;;;;;;0.40;0.40;;;;;;;16.13;100.00;100073.38;6100383;23;20021;-90
2023/06/28 05:48:12;;;;;;;1.17;0.73;;;;;;;16.13;100.00;100067.00;6076149;23;20032;-90
2023/06/28 05:50:37;;;;;;;0.55;0.55;;;;;;;16.02;100.00;100066.72;6099731;23;20021;-90
2023/06/28 05:53:03;;;;;;;0.47;0.35;;;;;;;16.07;100.00;100074.50;6124090;23;20032;-90
2023/06/28 05:55:29;;;;;;;1.05;0.93;;;;;;;16.04;100.00;100069.84;6100543;23;20045;-90
2023/06/28 05:57:54;;;;;;;0.55;0.55;;;;;;;16.06;100.00;100079.31;6099140;23;20102;-90
2023/06/28 06:00:20;;;;;;;0.45;0.45;;;;;;;16.00;100.00;100074.84;6100137;23;20062;-90
2023/06/28 06:02:46;;;;;;;0.70;0.70;;;;;;;15.96;100.00;100074.25;6099633;23;20493;-89
2023/06/28 06:05:14;;;;;;;0.68;0.68;;;;;;;15.92;100.00;100082.81;6124347;23;20021;-89
2023/06/28 08:25:54;;;;;;;0.10;0.10;;;;;;;19.69;100.00;100112.88;6162337;22;1523004;-90
2023/06/28 08:28:19;;;;;;;0.22;0.22;;;;;;;19.44;100.00;100114.41;6105302;23;20103;-89
2023/06/28 08:30:45;;;;;;;0.75;0.75;;;;;;;19.18;100.00;100095.94;6105346;23;20062;-90
2023/06/28 08:33:11;;;;;;;0.70;0.43;;;;;;;19.38;100.00;100096.66;6110737;23;20029;-96
2023/06/28 08:35:37;;;;;;;0.03;0.03;;;;;;;19.65;100.00;100108.72;6112999;23;20103;-96
2023/06/28 08:38:03;;;;;;;0.13;0.13;;;;;;;19.78;100.00;100104.22;6114177;23;20025;-96
2023/06/28 08:40:30;;;;;;;0.45;0.38;;;;;;;20.05;100.00;100102.91;6114961;23;20460;-96
2023/06/28 08:43:00;;;;;;;0.25;0.25;;;;;;;20.05;100.00;100094.47;6111249;23;20013;-96
2023/06/28 08:45:25;;;;;;;0.10;0.10;;;;;;;19.97;100.00;100096.19;6132685;23;20013;-89
2023/06/28 08:47:52;;;;;;;0.40;0.40;;;;;;;20.00;100.00;100107.22;6105197;23;20084;-89
2023/06/28 08:50:18;;;;;;;0.20;0.20;;;;;;;20.04;100.00;100092.91;6105017;23;20013;-89
2023/06/28 08:52:44;;;;;;;0.30;0.13;;;;;;;20.11;97.43;100094.50;6105416;23;20386;-89
2023/06/28 08:55:10;;;;;;;0.28;0.28;;;;;;;20.16;97.61;100082.50;6130207;23;20321;-88
2023/06/28 08:57:36;;;;;;;0.13;0.13;;;;;;;20.45;91.51;100085.81;6105522;23;20088;-89
2023/06/28 09:00:05;;;;;;;0.30;0.17;;;;;;;20.73;91.23;100090.78;6129245;23;20023;-89
2023/06/28 09:02:32;;;;;;;0.10;0.10;;;;;;;20.78;85.20;100088.00;6126019;23;20092;-89
2023/06/28 09:04:59;;;;;;;0.15;0.15;;;;;;;20.89;89.11;100084.44;6125067;23;20093;-90
2023/06/28 09:07:24;;;;;;;0.95;0.63;;;;;;;20.75;80.29;100089.00;6099842;23;20017;-90
2023/06/28 09:09:50;;;;;;;0.08;0.05;;;;;;;20.79;85.78;100083.13;6124924;23;20017;-89
2023/06/28 09:12:16;;;;;;;0.80;0.68;;;;;;;20.85;79.62;100084.69;6100674;23;20048;-89
2023/06/28 09:14:42;;;;;;;0.45;0.45;;;;;;;21.11;74.89;100084.50;6124695;23;20051;-89
2023/06/28 09:17:07;;;;;;;3.03;0.57;;;;;;;21.44;82.85;100083.06;6125134;23;20448;-89
2023/06/28 09:19:34;;;;;;;0.32;0.28;;;;;;;21.64;77.28;100074.38;6124922;23;20352;-89
2023/06/28 09:22:04;;;;;;;0.00;0.00;;;;;;;22.06;78.76;100076.97;6123872;23;20067;-90
2023/06/28 09:24:34;;;;;;;0.25;0.15;;;;;;;22.25;80.59;100058.16;6100402;23;20474;-89
2023/06/28 09:27:08;;;;;;;0.43;0.43;;;;;;;22.33;74.07;100064.84;6094684;23;20061;-89
2023/06/28 09:29:34;;;;;;;0.35;0.35;;;;;;;22.69;71.42;100076.31;6096266;23;20108;-90
2023/06/28 09:32:00;;;;;;;0.08;0.08;;;;;;;22.92;66.49;100074.16;6071178;23;20540;-89
2023/06/28 09:34:26;;;;;;;0.17;0.17;;;;;;;23.39;68.23;100066.41;6071659;23;20014;-89
2023/06/28 09:36:52;;;;;;;0.43;0.35;;;;;;;23.48;55.74;100071.81;6070726;23;20464;-90
2023/06/28 09:39:19;;;;;;;0.22;0.13;;;;;;;23.79;55.70;100065.63;6071638;23;20032;-89
2023/06/28 09:41:44;;;;;;;0.00;0.00;;;;;;;23.85;58.40;100066.38;6071819;23;20014;-94
2023/06/28 09:44:11;;;;;;;0.50;0.50;;;;;;;24.07;55.96;100080.31;6048910;23;20018;-95
2023/06/28 09:46:44;;;;;;;0.55;0.50;;;;;;;23.82;53.25;100072.31;6097972;23;20429;-95
2023/06/28 09:49:21;;;;;;;0.08;0.08;;;;;;;23.86;59.09;100065.03;6096657;23;20074;-95
2023/06/28 09:52:00;;;;;;;0.10;0.10;;;;;;;24.14;53.52;100064.81;6071946;23;20460;-94
2023/06/28 09:54:28;;;;;;;0.17;0.17;;;;;;;24.02;52.55;100072.63;6098449;23;20445;-95
2023/06/28 09:56:54;;;;;;;0.17;0.17;;;;;;;24.11;51.21;100057.34;6095500;23;20010;-95
2023/06/28 09:59:21;;;;;;;0.45;0.43;;;;;;;24.07;54.06;100062.53;6073020;23;20025;-95
2023/06/28 10:01:49;;;;;;;0.20;0.20;;;;;;;24.12;56.48;100062.50;6071799;23;19998;-95
2023/06/28 10:04:16;;;;;;;0.10;0.10;;;;;;;23.79;59.57;100056.34;6096294;23;20021;-95
2023/06/28 10:06:43;;;;;;;0.10;0.10;;;;;;;23.91;54.56;100054.97;6095639;23;20428;-95
2023/06/28 10:09:10;;;;;;;0.47;0.47;;;;;;;24.35;55.07;100048.88;6072091;23;20014;-89
2023/06/28 10:11:37;;;;;;;0.57;0.40;;;;;;;24.75;51.65;100061.28;6070925;23;20033;-89
2023/06/28 10:14:05;;;;;;;0.35;0.30;;;;;;;24.43;47.36;100046.97;6071110;23;20045;-89
2023/06/28 10:16:32;;;;;;;0.20;0.20;;;;;;;24.11;46.34;100043.94;6095587;23;20117;-90
2023/06/28 10:18:59;;;;;;;0.30;0.30;;;;;;;23.77;48.05;100045.56;6094969;23;20365;-89
2023/06/28 10:21:25;;;;;;;0.30;0.30;;;;;;;23.65;49.78;100049.78;6094764;23;20005;-89
2023/06/28 10:23:51;;;;;;;0.10;0.10;;;;;;;23.60;50.99;100030.78;6094956;23;20025;-89
2023/06/28 10:26:17;;;;;;;0.25;0.25;;;;;;;23.75;49.13;100047.38;6100689;23;20060;-89
2023/06/28 10:28:44;;;;;;;0.20;0.20;;;;;;;23.90;49.86;100048.53;6123928;23;20033;-89
2023/06/28 10:31:09;;;;;;;0.80;0.38;;;;;;;24.10;50.09;100045.25;6149025;23;20024;-89
2023/06/28 10:33:38;;;;;;;0.32;0.32;;;;;;;24.08;49.73;100042.19;6148889;23;20018;-89
2023/06/28 10:36:04;;;;;;;1.70;0.43;;;;;;;23.99;50.06;100051.03;6123520;23;20016;-89
2023/06/28 10:38:34;;;;;;;0.35;0.35;;;;;;;23.56;51.97;100047.28;6125022;23;20064;-89
2023/06/28 10:41:04;;;;;;;0.17;0.17;;;;;;;23.33;54.36;100034.56;6099944;23;20022;-89
2023/06/28 10:43:30;;;;;;;0.52;0.52;;;;;;;22.99;54.59;100040.44;6075911;23;20048;-89
2023/06/28 10:45:56;;;;;;;0.10;0.10;;;;;;;22.99;56.09;100031.19;6123968;23;20527;-89
2023/06/28 10:48:22;;;;;;;0.20;0.20;;;;;;;22.99;53.16;100034.00;6149265;23;20041;-89
2023/06/28 10:50:49;;;;;;;0.20;0.20;;;;;;;23.21;54.87;100017.66;6123621;23;20013;-89
2023/06/28 10:53:22;;;;;;;1.27;0.85;;;;;;;23.52;53.87;100015.66;6124818;23;20092;-89
2023/06/28 10:56:03;;;;;;;0.28;0.28;;;;;;;24.03;50.72;100023.16;6126725;23;20013;-89
2023/06/28 10:58:36;;;;;;;0.40;0.25;;;;;;;24.49;50.59;100018.56;6150368;23;20033;-89
2023/06/28 11:01:01;;;;;;;0.68;0.68;;;;;;;25.04;48.93;100023.53;6150194;23;20017;-89
2023/06/28 11:03:37;;;;;;;0.20;0.15;;;;;;;25.10;46.65;100019.84;6126214;23;20025;-89
2023/06/28 11:06:03;;;;;;;0.10;0.10;;;;;;;24.92;45.59;100010.03;6125363;23;20014;-95
2023/06/28 11:08:38;;;;;;;0.17;0.17;;;;;;;24.92;45.15;100016.47;6150944;23;20356;-89
2023/06/28 11:11:05;;;;;;;0.50;0.50;;;;;;;25.02;46.65;100020.47;6077874;23;20100;-89
2023/06/28 11:13:33;;;;;;;0.88;0.73;;;;;;;25.16;46.58;100018.44;6101329;23;20040;-89
2023/06/28 11:16:07;;;;;;;0.40;0.40;;;;;;;25.12;45.68;100012.31;6150317;23;20516;-89
2023/06/28 11:18:32;;;;;;;0.03;0.03;;;;;;;24.86;47.90;100018.63;6126166;23;20025;-89
2023/06/28 11:20:58;;;;;;;0.38;0.30;;;;;;;24.80;50.31;100026.41;6125073;23;20467;-89
2023/06/28 11:23:36;;;;;;;0.47;0.47;;;;;;;24.54;50.39;100003.56;6126724;23;20413;-89
2023/06/28 11:26:03;;;;;;;0.17;0.17;;;;;;;24.71;49.63;100006.94;6120918;23;20022;-89
2023/06/28 11:28:35;;;;;;;0.65;0.40;;;;;;;24.81;49.54;100001.66;6096339;23;20352;-89
2023/06/28 11:31:15;;;;;;;0.65;0.47;;;;;;;24.87;50.77;100011.63;6096600;23;20068;-89
2023/06/28 11:33:42;;;;;;;0.35;0.20;;;;;;;24.30;50.17;99997.94;6096508;23;20389;-89
2023/06/28 11:36:08;;;;;;;0.35;0.22;;;;;;;23.96;52.09;100000.31;6096661;23;20069;-95
2023/06/28 11:38:35;;;;;;;0.30;0.30;;;;;;;23.66;54.21;99992.63;6121940;23;20013;-93
2023/06/28 11:41:00;;;;;;;0.17;0.17;;;;;;;23.20;55.53;99998.38;6097028;23;20526;-94
2023/06/28 11:43:26;;;;;;;0.77;0.43;;;;;;;23.46;53.99;100003.59;6121644;23;20340;-96
2023/06/28 11:45:51;;;;;;;0.55;0.55;;;;;;;23.88;50.86;99997.31;6097337;23;20061;-94
2023/06/28 11:48:17;;;;;;;0.30;0.30;;;;;;;24.37;51.34;99997.31;6121756;23;20523;-94
2023/06/28 11:50:43;;;;;;;0.32;0.32;;;;;;;24.76;50.66;99993.97;6121049;23;20010;-94
2023/06/28 11:53:09;;;;;;;0.15;0.15;;;;;;;25.17;47.28;99985.94;6122271;23;20026;-96
2023/06/28 11:55:35;;;;;;;0.22;0.22;;;;;;;25.40;46.11;99980.66;6097094;23;20124;-95
2023/06/28 11:58:01;;;;;;;0.50;0.50;;;;;;;24.89;44.92;99986.34;6121270;23;20017;-95
2023/06/28 12:00:37;;;;;;;0.00;0.00;;;;;;;24.26;47.61;99978.41;6121036;23;20013;-94
2023/06/28 12:03:03;;;;;;;0.43;0.30;;;;;;;23.78;48.08;99973.44;6121449;23;20020;-90
2023/06/28 12:05:29;;;;;;;0.13;0.13;;;;;;;23.38;48.58;99971.47;6096275;23;20017;-95
2023/06/28 12:07:57;;;;;;;0.57;0.45;;;;;;;23.36;50.92;99968.41;6121380;23;20018;-95
2023/06/28 12:10:23;;;;;;;0.63;0.47;;;;;;;23.46;50.58;99959.09;6097001;23;20104;-95
2023/06/28 12:12:48;;;;;;;0.65;0.40;;;;;;;23.65;50.31;99962.03;6096746;23;20042;-94
2023/06/28 12:15:14;;;;;;;0.25;0.20;;;;;;;23.56;49.32;99963.13;6096625;23;20041;-94
2023/06/28 12:17:41;;;;;;;0.10;0.10;;;;;;;23.67;49.54;99962.25;6121556;23;20017;-94
2023/06/28 12:20:11;;;;;;;0.20;0.20;;;;;;;23.60;50.16;99963.59;6097648;23;20013;-95
2023/06/28 12:22:43;;;;;;;0.30;0.30;;;;;;;23.66;48.41;99967.13;6096592;23;20017;-96
2023/06/28 12:25:08;;;;;;;0.00;0.00;;;;;;;24.24;48.10;99946.97;6121736;23;20033;-95
2023/06/28 12:27:34;;;;;;;0.15;0.15;;;;;;;24.54;46.10;99947.63;6121068;23;20492;-94
2023/06/28 12:30:07;;;;;;;0.10;0.10;;;;;;;25.05;44.58;99951.28;6097929;23;20025;-95
2023/06/28 12:32:32;;;;;;;0.10;0.10;;;;;;;25.39;40.83;99940.16;6145628;23;20017;-94
2023/06/28 12:34:58;;;;;;;0.43;0.43;;;;;;;25.33;42.33;99935.88;6122110;23;20009;-94
2023/06/28 12:37:33;;;;;;;13.90;0.75;;;;;;;25.53;42.47;99941.72;6097783;23;20022;-95
2023/06/28 12:40:04;;;;;;;0.30;0.30;;;;;;;25.75;41.73;99932.06;6073244;23;20022;-95
2023/06/28 12:42:30;;;;;;;0.10;0.10;;;;;;;26.10;41.80;99932.91;6122370;23;20400;-95
2023/06/28 12:44:58;;;;;;;0.73;0.40;;;;;;;26.00;40.02;99924.81;6097335;23;20129;-94
2023/06/28 12:47:25;;;;;;;0.05;0.05;;;;;;;25.89;40.01;99924.28;6096991;23;20010;-95
2023/06/28 12:49:51;;;;;;;0.20;0.20;;;;;;;26.24;39.81;99937.31;6121367;23;20460;-90
2023/06/28 12:52:18;;;;;;;0.47;0.30;;;;;;;26.42;40.08;99925.03;6095029;23;20006;-90
2023/06/28 12:54:45;;;;;;;0.80;0.32;;;;;;;26.79;39.81;99930.41;6095716;23;20037;-89
2023/06/28 12:57:10;;;;;;;0.57;0.40;;;;;;;26.48;37.58;99922.09;6095730;23;20017;-90
2023/06/28 12:59:38;;;;;;;0.15;0.15;;;;;;;26.40;38.00;99924.84;6120372;23;20021;-89
2023/06/28 13:02:04;;;;;;;0.13;0.13;;;;;;;26.17;39.44;99915.19;6096042;23;20309;-95
2023/06/28 13:04:34;;;;;;;0.38;0.25;;;;;;;26.29;39.98;99913.69;6096269;23;20014;-96
2023/06/28 13:07:01;;;;;;;0.30;0.30;;;;;;;26.26;38.47;99918.41;6095590;23;20022;-94
2023/06/28 13:09:26;;;;;;;0.20;0.20;;;;;;;26.47;37.64;99914.84;6072586;23;20094;-94
2023/06/28 13:11:52;;;;;;;0.43;0.43;;;;;;;26.59;37.61;99925.44;6120165;23;20120;-93
2023/06/28 13:14:17;;;;;;;2.03;1.10;;;;;;;26.73;39.63;99914.78;6120763;23;20002;-95
2023/06/28 13:16:44;;;;;;;0.20;0.20;;;;;;;27.05;39.21;99920.28;6095791;23;20468;-95
2023/06/28 13:19:09;;;;;;;0.10;0.10;;;;;;;26.61;39.90;99917.09;6096249;23;20352;-90
2023/06/28 13:21:35;;;;;;;0.32;0.32;;;;;;;26.05;40.08;99922.41;6094935;23;20508;-89
2023/06/28 13:24:00;;;;;;;0.30;0.30;;;;;;;25.71;41.09;99917.41;6119878;23;20444;-89
2023/06/28 13:26:26;;;;;;;0.20;0.20;;;;;;;25.59;41.83;99906.78;6095309;23;20108;-89
2023/06/28 13:28:51;;;;;;;0.30;0.30;;;;;;;25.98;43.28;99910.41;6120452;23;20210;-89
2023/06/28 13:31:17;;;;;;;1.05;0.50;;;;;;;26.18;42.91;99908.97;6096383;23;20440;-89
2023/06/28 13:33:43;;;;;;;0.10;0.10;;;;;;;26.59;42.17;99905.53;6120066;23;20037;-90
2023/06/28 13:36:10;;;;;;;0.20;0.20;;;;;;;26.68;41.08;99912.84;6095135;23;20527;-89
2023/06/28 13:38:36;;;;;;;0.90;0.82;;;;;;;26.88;40.72;99903.59;6095763;23;20400;-89
2023/06/28 13:41:01;;;;;;;0.20;0.20;;;;;;;26.70;40.60;99905.25;6095222;23;20033;-89
2023/06/28 13:43:27;;;;;;;0.10;0.10;;;;;;;26.25;39.46;99899.03;6095143;23;20403;-90
2023/06/28 13:45:52;;;;;;;0.40;0.40;;;;;;;26.37;38.51;99895.41;6120084;23;20028;-94